sensor_id;sensor_type;location;lat;lon;timestamp;pressure;altitude;pressure_sealevel;temperature;humidity
13068;BME280;6600;51.362;6.686;2023-02-22T00:00:15;101129.59;;;8.10;100.00
13068;BME280;6600;51.362;6.686;2023-02-22T00:02:49;101135.94;;;8.09;100.00
13068;BME280;6600;51.362;6.686;2023-02-22T00:05:17;101128.56;;;8.11;100.00
13068;BME280;6600;51.362;6.686;2023-02-22T00:07:45;101121.94;;;8.07;100.00
13068;BME280;6600;51.362;6.686;2023-02-22T00:10:12;101126.28;;;8.08;100.00
13068;BME280;6600;51.362;6.686;2023-02-22T00:12:42;101123.53;;;8.01;100.00
13068;BME280;6600;51.362;6.686;2023-02-22T00:15:08;101117.56;;;7.99;100.00
13068;BME280;6600;51.362;6.686;2023-02-22T00:17:35;101121.94;;;8.07;100.00
13068;BME280;6600;51.362;6.686;2023-02-22T00:20:00;101117.19;;;8.02;100.00
13068;BME280;6600;51.362;6.686;2023-02-22T00:22:26;101111.66;;;8.04;100.00
13068;BME280;6600;51.362;6.686;2023-02-22T00:24:51;101112.31;;;8.06;100.00
13068;BME280;6600;51.362;6.686;2023-02-22T00:27:16;101110.25;;;8.08;100.00
13068;BME280;6600;51.362;6.686;2023-02-22T00:29:45;101105.31;;;8.05;100.00
13068;BME280;6600;51.362;6.686;2023-02-22T00:32:11;101115.06;;;7.98;100.00
13068;BME280;6600;51.362;6.686;2023-02-22T00:34:36;101109.75;;;7.98;100.00
13068;BME280;6600;51.362;6.686;2023-02-22T00:37:02;101114.06;;;7.99;100.00
13068;BME280;6600;51.362;6.686;2023-02-22T00:39:31;101109.75;;;7.98;100.00
13068;BME280;6600;51.362;6.686;2023-02-22T00:41:56;101106.44;;;7.96;100.00
13068;BME280;6600;51.362;6.686;2023-02-22T00:44:22;101102.75;;;7.97;100.00
13068;BME280;6600;51.362;6.686;2023-02-22T00:46:47;101107.06;;;7.98;100.00
13068;BME280;6600;51.362;6.686;2023-02-22T00:49:14;101102.75;;;7.97;100.00
13068;BME280;6600;51.362;6.686;2023-02-22T00:51:39;101092.44;;;7.94;100.00
13068;BME280;6600;51.362;6.686;2023-02-22T00:54:05;101090.81;;;7.93;100.00
13068;BME280;6600;51.362;6.686;2023-02-22T00:56:32;101095.31;;;7.92;100.00
13068;BME280;6600;51.362;6.686;2023-02-22T00:58:58;101091.38;;;7.88;100.00
13068;BME280;6600;51.362;6.686;2023-02-22T01:01:28;101086.59;;;7.84;100.00
13068;BME280;6600;51.362;6.686;2023-02-22T01:03:53;101093.59;;;7.85;100.00
13068;BME280;6600;51.362;6.686;2023-02-22T01:06:19;101086.59;;;7.84;100.00
13068;BME280;6600;51.362;6.686;2023-02-22T01:08:45;101084.59;;;7.86;100.00
13068;BME280;6600;51.362;6.686;2023-02-22T01:11:12;101074.91;;;7.85;100.00
13068;BME280;6600;51.362;6.686;2023-02-22T01:13:39;101074.91;;;7.85;100.00
13068;BME280;6600;51.362;6.686;2023-02-22T01:16:05;101073.53;;;7.89;100.00
13068;BME280;6600;51.362;6.686;2023-02-22T01:18:33;101078.88;;;7.89;100.00
13068;BME280;6600;51.362;6.686;2023-02-22T01:21:00;101075.47;;;7.80;100.00
13068;BME280;6600;51.362;6.686;2023-02-22T01:23:26;101070.59;;;7.84;100.00
13068;BME280;6600;51.362;6.686;2023-02-22T01:25:51;101073.09;;;7.85;100.00
13068;BME280;6600;51.362;6.686;2023-02-22T01:28:16;101075.53;;;7.87;100.00
13068;BME280;6600;51.362;6.686;2023-02-22T01:30:42;101070.22;;;7.87;100.00
13068;BME280;6600;51.362;6.686;2023-02-22T01:33:07;101069.19;;;7.88;100.00
13068;BME280;6600;51.362;6.686;2023-02-22T01:35:35;101059.91;;;7.84;100.00
13068;BME280;6600;51.362;6.686;2023-02-22T01:38:01;101061.31;;;7.80;100.00
13068;BME280;6600;51.362;6.686;2023-02-22T01:40:35;101063.97;;;7.80;100.00
13068;BME280;6600;51.362;6.686;2023-02-22T01:43:12;101054.44;;;7.71;100.00
13068;BME280;6600;51.362;6.686;2023-02-22T01:45:54;101052.41;;;7.73;100.00
13068;BME280;6600;51.362;6.686;2023-02-22T01:53:47;101038.38;;;7.64;100.00
13068;BME280;6600;51.362;6.686;2023-02-22T01:56:15;101042.50;;;7.67;100.00
13068;BME280;6600;51.362;6.686;2023-02-22T01:58:49;101040.84;;;7.66;100.00
13068;BME280;6600;51.362;6.686;2023-02-22T02:01:17;101040.03;;;7.65;100.00
13068;BME280;6600;51.362;6.686;2023-02-22T02:03:43;101037.53;;;7.63;100.00
13068;BME280;6600;51.362;6.686;2023-02-22T02:06:12;101037.53;;;7.63;100.00
13068;BME280;6600;51.362;6.686;2023-02-22T02:08:46;101030.56;;;7.62;100.00
13068;BME280;6600;51.362;6.686;2023-02-22T02:11:20;101024.75;;;7.59;100.00
13068;BME280;6600;51.362;6.686;2023-02-22T02:13:49;101024.97;;;7.57;100.00
13068;BME280;6600;51.362;6.686;2023-02-22T02:16:16;101023.50;;;7.55;100.00
13068;BME280;6600;51.362;6.686;2023-02-22T02:18:41;101029.19;;;7.52;100.00
13068;BME280;6600;51.362;6.686;2023-02-22T02:37:55;101016.03;;;7.15;100.00
13068;BME280;6600;51.362;6.686;2023-02-22T02:40:44;101019.28;;;7.10;100.00
13068;BME280;6600;51.362;6.686;2023-02-22T02:43:30;101017.91;;;6.99;100.00
13068;BME280;6600;51.362;6.686;2023-02-22T02:46:05;101006.78;;;6.96;100.00
13068;BME280;6600;51.362;6.686;2023-02-22T02:48:33;101012.84;;;6.90;100.00
13068;BME280;6600;51.362;6.686;2023-02-22T02:51:02;101009.09;;;6.84;100.00
13068;BME280;6600;51.362;6.686;2023-02-22T02:53:39;101002.28;;;6.82;100.00
13068;BME280;6600;51.362;6.686;2023-02-22T02:56:06;100998.72;;;6.75;100.00
13068;BME280;6600;51.362;6.686;2023-02-22T02:58:32;100998.25;;;6.71;100.00
13068;BME280;6600;51.362;6.686;2023-02-22T03:00:59;100997.41;;;6.71;100.00
13068;BME280;6600;51.362;6.686;2023-02-22T03:09:29;100983.09;;;6.72;100.00
13068;BME280;6600;51.362;6.686;2023-02-22T03:15:08;100978.50;;;6.66;100.00
13068;BME280;6600;51.362;6.686;2023-02-22T03:23:23;100974.44;;;6.70;100.00
13068;BME280;6600;51.362;6.686;2023-02-22T03:25:54;100977.78;;;6.72;100.00
13068;BME280;6600;51.362;6.686;2023-02-22T03:28:23;100973.44;;;6.71;100.00
13068;BME280;6600;51.362;6.686;2023-02-22T03:30:55;100968.75;;;6.73;100.00
13068;BME280;6600;51.362;6.686;2023-02-22T03:33:27;100972.09;;;6.75;100.00
13068;BME280;6600;51.362;6.686;2023-02-22T03:36:02;100969.13;;;6.70;100.00
13068;BME280;6600;51.362;6.686;2023-02-22T03:38:31;100972.09;;;6.75;100.00
13068;BME280;6600;51.362;6.686;2023-02-22T03:41:00;100970.41;;;6.74;100.00
13068;BME280;6600;51.362;6.686;2023-02-22T03:43:33;100975.75;;;6.74;100.00
13068;BME280;6600;51.362;6.686;2023-02-22T03:46:00;100973.09;;;6.74;100.00
13068;BME280;6600;51.362;6.686;2023-02-22T03:51:24;100967.13;;;6.72;100.00
13068;BME280;6600;51.362;6.686;2023-02-22T03:53:50;100973.00;;;6.67;100.00
13068;BME280;6600;51.362;6.686;2023-02-22T03:56:23;100970.03;;;6.77;100.00
13068;BME280;6600;51.362;6.686;2023-02-22T03:58:50;100972.91;;;6.75;100.00
13068;BME280;6600;51.362;6.686;2023-02-22T04:01:16;100966.09;;;6.73;100.00
13068;BME280;6600;51.362;6.686;2023-02-22T04:03:44;100976.75;;;6.73;100.00
13068;BME280;6600;51.362;6.686;2023-02-22T04:06:09;100972.81;;;6.69;100.00
13068;BME280;6600;51.362;6.686;2023-02-22T04:08:35;100970.63;;;6.72;100.00
13068;BME280;6600;51.362;6.686;2023-02-22T04:11:00;100975.38;;;6.77;100.00
13068;BME280;6600;51.362;6.686;2023-02-22T04:13:26;100969.31;;;6.83;100.00
13068;BME280;6600;51.362;6.686;2023-02-22T04:15:52;100964.88;;;6.90;100.00
13068;BME280;6600;51.362;6.686;2023-02-22T04:18:17;100962.44;;;6.88;100.00
13068;BME280;6600;51.362;6.686;2023-02-22T04:20:42;100969.50;;;6.96;100.00
13068;BME280;6600;51.362;6.686;2023-02-22T04:23:09;100960.47;;;6.97;100.00
13068;BME280;6600;51.362;6.686;2023-02-22T04:25:34;100955.28;;;6.89;100.00
13068;BME280;6600;51.362;6.686;2023-02-22T04:28:00;100953.13;;;6.99;100.00
13068;BME280;6600;51.362;6.686;2023-02-22T04:30:25;100956.06;;;7.04;100.00
13068;BME280;6600;51.362;6.686;2023-02-22T04:32:53;100952.38;;;7.05;100.00
13068;BME280;6600;51.362;6.686;2023-02-22T04:35:18;100941.09;;;7.03;100.00
13068;BME280;6600;51.362;6.686;2023-02-22T04:37:44;100946.44;;;7.03;100.00
13068;BME280;6600;51.362;6.686;2023-02-22T04:40:09;100943.09;;;7.01;100.00
13068;BME280;6600;51.362;6.686;2023-02-22T04:42:36;100943.75;;;7.03;100.00
13068;BME280;6600;51.362;6.686;2023-02-22T04:45:03;100936.03;;;7.08;100.00
13068;BME280;6600;51.362;6.686;2023-02-22T04:47:29;100936.31;;;7.13;100.00
13068;BME280;6600;51.362;6.686;2023-02-22T04:49:54;100931.34;;;7.10;100.00
13068;BME280;6600;51.362;6.686;2023-02-22T04:52:20;100926.66;;;7.12;100.00
13068;BME280;6600;51.362;6.686;2023-02-22T04:54:45;100926.56;;;7.05;100.00
13068;BME280;6600;51.362;6.686;2023-02-22T04:57:11;100935.41;;;7.06;100.00
13068;BME280;6600;51.362;6.686;2023-02-22T04:59:36;100926.56;;;7.05;100.00
13068;BME280;6600;51.362;6.686;2023-02-22T05:02:01;100922.91;;;7.06;100.00
13068;BME280;6600;51.362;6.686;2023-02-22T05:04:27;100920.78;;;7.02;100.00
13068;BME280;6600;51.362;6.686;2023-02-22T05:06:52;100921.03;;;7.07;100.00
13068;BME280;6600;51.362;6.686;2023-02-22T05:09:18;100918.03;;;7.10;100.00
13068;BME280;6600;51.362;6.686;2023-02-22T05:11:43;100915.97;;;7.12;100.00
13068;BME280;6600;51.362;6.686;2023-02-22T05:14:08;100915.97;;;7.12;100.00
13068;BME280;6600;51.362;6.686;2023-02-22T05:16:34;100913.03;;;7.07;100.00
13068;BME280;6600;51.362;6.686;2023-02-22T05:19:00;100902.75;;;7.04;100.00
13068;BME280;6600;51.362;6.686;2023-02-22T05:21:25;100901.75;;;7.05;100.00
13068;BME280;6600;51.362;6.686;2023-02-22T05:23:50;100899.47;;;7.02;100.00
13068;BME280;6600;51.362;6.686;2023-02-22T05:26:16;100894.59;;;7.05;100.00
13068;BME280;6600;51.362;6.686;2023-02-22T05:28:41;100896.25;;;7.06;100.00
13068;BME280;6600;51.362;6.686;2023-02-22T05:31:07;100895.44;;;7.06;100.00
13068;BME280;6600;51.362;6.686;2023-02-22T05:33:32;100895.81;;;7.03;100.00
13068;BME280;6600;51.362;6.686;2023-02-22T05:35:58;100892.94;;;7.04;100.00
13068;BME280;6600;51.362;6.686;2023-02-22T05:38:23;100897.06;;;7.07;100.00
13068;BME280;6600;51.362;6.686;2023-02-22T05:40:49;100897.81;;;7.01;100.00
13068;BME280;6600;51.362;6.686;2023-02-22T05:43:15;100900.47;;;7.01;100.00
13068;BME280;6600;51.362;6.686;2023-02-22T05:45:40;100905.44;;;7.04;100.00
13068;BME280;6600;51.362;6.686;2023-02-22T05:48:06;100895.72;;;6.96;100.00
13068;BME280;6600;51.362;6.686;2023-02-22T05:50:32;100894.91;;;6.96;100.00
13068;BME280;6600;51.362;6.686;2023-02-22T05:52:57;100887.91;;;6.95;100.00
13068;BME280;6600;51.362;6.686;2023-02-22T05:55:23;100892.63;;;6.93;100.00
13068;BME280;6600;51.362;6.686;2023-02-22T05:57:50;100896.53;;;6.97;100.00
13068;BME280;6600;51.362;6.686;2023-02-22T06:00:22;100889.13;;;6.92;100.00
13068;BME280;6600;51.362;6.686;2023-02-22T06:03:03;100885.88;;;6.97;100.00
13068;BME280;6600;51.362;6.686;2023-02-22T06:05:29;100887.47;;;6.91;100.00
13068;BME280;6600;51.362;6.686;2023-02-22T06:07:56;100884.97;;;6.90;100.00
13068;BME280;6600;51.362;6.686;2023-02-22T06:10:22;100884.19;;;6.89;100.00
13068;BME280;6600;51.362;6.686;2023-02-22T06:12:48;100884.34;;;6.88;100.00
13068;BME280;6600;51.362;6.686;2023-02-22T06:15:15;100886.25;;;6.94;100.00
13068;BME280;6600;51.362;6.686;2023-02-22T06:17:41;100870.03;;;6.89;100.00
13068;BME280;6600;51.362;6.686;2023-02-22T06:20:09;100874.69;;;6.87;100.00
13068;BME280;6600;51.362;6.686;2023-02-22T06:22:34;100878.03;;;6.89;100.00
13068;BME280;6600;51.362;6.686;2023-02-22T06:25:02;100869.00;;;6.90;100.00
13068;BME280;6600;51.362;6.686;2023-02-22T06:27:30;100867.38;;;6.89;100.00
13068;BME280;6600;51.362;6.686;2023-02-22T06:29:57;100864.88;;;6.87;100.00
13068;BME280;6600;51.362;6.686;2023-02-22T06:32:22;100864.03;;;6.87;100.00
13068;BME280;6600;51.362;6.686;2023-02-22T06:34:47;100867.09;;;6.84;100.00
13068;BME280;6600;51.362;6.686;2023-02-22T06:37:13;100869.38;;;6.87;100.00
13068;BME280;6600;51.362;6.686;2023-02-22T06:39:38;100875.47;;;6.81;100.00
13068;BME280;6600;51.362;6.686;2023-02-22T06:42:03;100884.06;;;6.83;100.00
13068;BME280;6600;51.362;6.686;2023-02-22T06:44:29;100873.41;;;6.83;100.00
13068;BME280;6600;51.362;6.686;2023-02-22T06:46:54;100871.50;;;6.77;100.00
13068;BME280;6600;51.362;6.686;2023-02-22T06:49:20;100872.53;;;6.76;100.00
13068;BME280;6600;51.362;6.686;2023-02-22T06:51:46;100871.72;;;6.75;100.00
13068;BME280;6600;51.362;6.686;2023-02-22T06:54:13;100870.88;;;6.75;100.00
13068;BME280;6600;51.362;6.686;2023-02-22T06:56:38;100857.66;;;6.67;100.00
13068;BME280;6600;51.362;6.686;2023-02-22T06:59:03;100860.63;;;6.72;100.00
13068;BME280;6600;51.362;6.686;2023-02-22T07:01:29;100865.66;;;6.67;100.00
13068;BME280;6600;51.362;6.686;2023-02-22T07:03:54;100866.66;;;6.66;100.00
13068;BME280;6600;51.362;6.686;2023-02-22T07:06:20;100867.94;;;6.70;100.00
13068;BME280;6600;51.362;6.686;2023-02-22T07:08:45;100869.16;;;6.67;100.00
13068;BME280;6600;51.362;6.686;2023-02-22T07:11:10;100860.09;;;6.62;100.00
13068;BME280;6600;51.362;6.686;2023-02-22T07:13:36;100862.81;;;6.68;100.00
13068;BME280;6600;51.362;6.686;2023-02-22T07:16:01;100866.94;;;6.71;100.00
13068;BME280;6600;51.362;6.686;2023-02-22T07:18:26;100863.53;;;6.77;100.00
13068;BME280;6600;51.362;6.686;2023-02-22T07:20:52;100862.06;;;6.74;100.00
13068;BME280;6600;51.362;6.686;2023-02-22T07:23:19;100861.50;;;6.79;100.00
13068;BME280;6600;51.362;6.686;2023-02-22T07:25:44;100856.63;;;6.82;100.00
13068;BME280;6600;51.362;6.686;2023-02-22T07:28:10;100863.22;;;6.86;100.00
13068;BME280;6600;51.362;6.686;2023-02-22T07:30:36;100860.38;;;6.88;100.00
13068;BME280;6600;51.362;6.686;2023-02-22T07:33:04;100861.28;;;6.95;100.00
13068;BME280;6600;51.362;6.686;2023-02-22T07:35:32;100860.28;;;6.96;100.00
13068;BME280;6600;51.362;6.686;2023-02-22T07:38:00;100858.84;;;7.00;100.00
13068;BME280;6600;51.362;6.686;2023-02-22T07:40:26;100856.47;;;7.05;100.00
13068;BME280;6600;51.362;6.686;2023-02-22T07:42:58;100848.75;;;7.10;100.00
13068;BME280;6600;51.362;6.686;2023-02-22T07:45:26;100858.19;;;7.13;100.00
13068;BME280;6600;51.362;6.686;2023-02-22T07:47:52;100851.66;;;7.15;100.00
13068;BME280;6600;51.362;6.686;2023-02-22T07:50:19;100848.66;;;7.25;100.00
13068;BME280;6600;51.362;6.686;2023-02-22T07:52:46;100841.16;;;7.35;100.00
13068;BME280;6600;51.362;6.686;2023-02-22T07:55:14;100840.22;;;7.42;100.00
13068;BME280;6600;51.362;6.686;2023-02-22T07:57:41;100844.97;;;7.47;100.00
13068;BME280;6600;51.362;6.686;2023-02-22T08:00:07;100844.59;;;7.50;100.00
13068;BME280;6600;51.362;6.686;2023-02-22T08:02:33;100849.59;;;7.59;100.00
13068;BME280;6600;51.362;6.686;2023-02-22T08:04:58;100841.47;;;7.68;100.00
13068;BME280;6600;51.362;6.686;2023-02-22T08:07:23;100842.97;;;7.77;100.00
13068;BME280;6600;51.362;6.686;2023-02-22T08:09:49;100838.28;;;7.79;100.00
13068;BME280;6600;51.362;6.686;2023-02-22T08:12:14;100841.94;;;7.78;100.00
13068;BME280;6600;51.362;6.686;2023-02-22T08:14:40;100835.28;;;7.95;100.00
13068;BME280;6600;51.362;6.686;2023-02-22T08:17:05;100830.19;;;8.00;100.00
13068;BME280;6600;51.362;6.686;2023-02-22T08:19:31;100836.38;;;8.07;100.00
13068;BME280;6600;51.362;6.686;2023-02-22T08:21:56;100828.22;;;8.15;100.00
13068;BME280;6600;51.362;6.686;2023-02-22T08:24:21;100825.81;;;8.20;100.00
13068;BME280;6600;51.362;6.686;2023-02-22T08:26:47;100821.34;;;8.27;100.00
13068;BME280;6600;51.362;6.686;2023-02-22T08:29:12;100820.56;;;8.33;100.00
13068;BME280;6600;51.362;6.686;2023-02-22T08:31:39;100825.56;;;8.49;100.00
13068;BME280;6600;51.362;6.686;2023-02-22T08:34:05;100824.31;;;8.52;100.00
13068;BME280;6600;51.362;6.686;2023-02-22T08:36:30;100826.00;;;8.59;100.00
13068;BME280;6600;51.362;6.686;2023-02-22T08:38:57;100821.91;;;8.63;100.00
13068;BME280;6600;51.362;6.686;2023-02-22T08:41:22;100822.97;;;8.76;100.00
13068;BME280;6600;51.362;6.686;2023-02-22T08:43:48;100826.47;;;8.83;100.00
13068;BME280;6600;51.362;6.686;2023-02-22T08:46:15;100818.28;;;8.91;100.00
13068;BME280;6600;51.362;6.686;2023-02-22T08:48:50;100819.75;;;9.00;100.00
13068;BME280;6600;51.362;6.686;2023-02-22T08:51:17;100828.59;;;9.07;100.00
13068;BME280;6600;51.362;6.686;2023-02-22T08:53:42;100821.66;;;9.19;100.00
13068;BME280;6600;51.362;6.686;2023-02-22T08:56:08;100822.91;;;9.36;100.00
13068;BME280;6600;51.362;6.686;2023-02-22T08:58:34;100822.47;;;9.39;100.00
13068;BME280;6600;51.362;6.686;2023-02-22T09:00:59;100824.97;;;9.60;100.00
13068;BME280;6600;51.362;6.686;2023-02-22T09:03:24;100823.72;;;9.70;100.00
13068;BME280;6600;51.362;6.686;2023-02-22T09:05:50;100823.28;;;9.79;100.00
13068;BME280;6600;51.362;6.686;2023-02-22T09:08:16;100822.66;;;9.84;100.00
13068;BME280;6600;51.362;6.686;2023-02-22T09:10:41;100818.34;;;9.96;100.00
13068;BME280;6600;51.362;6.686;2023-02-22T09:13:07;100826.09;;;10.10;100.00
13068;BME280;6600;51.362;6.686;2023-02-22T09:15:33;100827.78;;;10.18;100.00
13068;BME280;6600;51.362;6.686;2023-02-22T09:18:03;100820.78;;;10.24;100.00
13068;BME280;6600;51.362;6.686;2023-02-22T09:20:29;100824.91;;;10.20;100.00
13068;BME280;6600;51.362;6.686;2023-02-22T09:22:55;100821.97;;;10.34;100.00
13068;BME280;6600;51.362;6.686;2023-02-22T09:25:22;100820.06;;;10.41;100.00
13068;BME280;6600;51.362;6.686;2023-02-22T09:27:51;100818.19;;;10.48;100.00
13068;BME280;6600;51.362;6.686;2023-02-22T09:30:23;100818.16;;;10.61;100.00
13068;BME280;6600;51.362;6.686;2023-02-22T09:32:55;100817.91;;;10.70;100.00
13068;BME280;6600;51.362;6.686;2023-02-22T09:35:21;100811.91;;;10.74;100.00
13068;BME280;6600;51.362;6.686;2023-02-22T09:37:54;100816.16;;;10.88;100.00
13068;BME280;6600;51.362;6.686;2023-02-22T09:40:21;100808.09;;;10.95;100.00
13068;BME280;6600;51.362;6.686;2023-02-22T09:48:23;100803.41;;;11.15;100.00
13068;BME280;6600;51.362;6.686;2023-02-22T09:50:52;100807.06;;;11.21;100.00
13068;BME280;6600;51.362;6.686;2023-02-22T09:53:37;100818.38;;;11.29;100.00
13068;BME280;6600;51.362;6.686;2023-02-22T09:56:08;100805.78;;;11.30;100.00
13068;BME280;6600;51.362;6.686;2023-02-22T09:58:56;100804.97;;;11.29;99.82
13068;BME280;6600;51.362;6.686;2023-02-22T10:01:27;100805.09;;;11.34;99.68
13068;BME280;6600;51.362;6.686;2023-02-22T10:09:24;100798.59;;;11.48;100.00
13068;BME280;6600;51.362;6.686;2023-02-22T10:22:42;100778.16;;;11.97;99.58
13068;BME280;6600;51.362;6.686;2023-02-22T10:25:13;100778.44;;;12.07;99.36
13068;BME280;6600;51.362;6.686;2023-02-22T10:27:47;100772.19;;;12.13;97.56
13068;BME280;6600;51.362;6.686;2023-02-22T10:30:42;100780.22;;;12.31;98.17
13068;BME280;6600;51.362;6.686;2023-02-22T10:33:20;100775.88;;;12.48;97.24
13068;BME280;6600;51.362;6.686;2023-02-22T10:35:46;100768.19;;;12.52;96.83
13068;BME280;6600;51.362;6.686;2023-02-22T10:38:24;100769.09;;;12.76;95.58
13068;BME280;6600;51.362;6.686;2023-02-22T10:43:22;100760.34;;;12.80;93.60
13068;BME280;6600;51.362;6.686;2023-02-22T10:45:50;100759.94;;;12.95;94.01
13068;BME280;6600;51.362;6.686;2023-02-22T10:48:18;100758.91;;;13.07;94.33
13068;BME280;6600;51.362;6.686;2023-02-22T10:50:45;100755.69;;;13.17;92.82
13068;BME280;6600;51.362;6.686;2023-02-22T10:53:12;100753.94;;;13.23;93.00
13068;BME280;6600;51.362;6.686;2023-02-22T10:56:08;100752.34;;;13.33;91.94
13068;BME280;6600;51.362;6.686;2023-02-22T10:58:53;100746.34;;;13.31;91.81
13068;BME280;6600;51.362;6.686;2023-02-22T11:03:56;100750.69;;;13.55;90.79
13068;BME280;6600;51.362;6.686;2023-02-22T11:06:22;100746.03;;;13.51;89.57
13068;BME280;6600;51.362;6.686;2023-02-22T11:08:48;100738.41;;;13.59;89.88
13068;BME280;6600;51.362;6.686;2023-02-22T11:11:24;100739.09;;;13.55;89.80
13068;BME280;6600;51.362;6.686;2023-02-22T11:13:56;100741.78;;;13.55;88.68
13068;BME280;6600;51.362;6.686;2023-02-22T11:19:11;100745.53;;;13.77;89.00
13068;BME280;6600;51.362;6.686;2023-02-22T11:21:41;100741.88;;;13.95;88.64
13068;BME280;6600;51.362;6.686;2023-02-22T11:24:09;100735.81;;;13.88;88.83
13068;BME280;6600;51.362;6.686;2023-02-22T11:26:52;100733.91;;;14.00;88.51
13068;BME280;6600;51.362;6.686;2023-02-22T11:29:21;100733.91;;;14.00;87.31
13068;BME280;6600;51.362;6.686;2023-02-22T11:31:47;100727.69;;;14.11;86.41
13068;BME280;6600;51.362;6.686;2023-02-22T11:34:38;100728.06;;;14.03;85.27
13068;BME280;6600;51.362;6.686;2023-02-22T11:37:30;100723.81;;;14.07;85.33
13068;BME280;6600;51.362;6.686;2023-02-22T11:40:25;100724.97;;;14.11;86.01
13068;BME280;6600;51.362;6.686;2023-02-22T11:43:15;100713.72;;;14.14;85.53
13068;BME280;6600;51.362;6.686;2023-02-22T11:46:17;100719.31;;;14.24;84.83
13068;BME280;6600;51.362;6.686;2023-02-22T11:49:07;100715.00;;;14.23;84.67
13068;BME280;6600;51.362;6.686;2023-02-22T11:56:59;100703.81;;;14.31;84.94
13068;BME280;6600;51.362;6.686;2023-02-22T12:05:10;100702.84;;;14.49;84.78
13068;BME280;6600;51.362;6.686;2023-02-22T12:16:30;100693.19;;;14.64;84.65
13068;BME280;6600;51.362;6.686;2023-02-22T12:21:30;100701.84;;;14.83;84.61
13068;BME280;6600;51.362;6.686;2023-02-22T12:24:13;100697.78;;;14.81;81.88
13068;BME280;6600;51.362;6.686;2023-02-22T12:26:43;100699.91;;;14.79;81.29
13068;BME280;6600;51.362;6.686;2023-02-22T12:29:27;100687.22;;;14.79;82.26
13068;BME280;6600;51.362;6.686;2023-02-22T12:32:05;100694.50;;;14.79;82.45
13068;BME280;6600;51.362;6.686;2023-02-22T12:34:37;100692.69;;;14.68;83.17
13068;BME280;6600;51.362;6.686;2023-02-22T12:45:10;100691.03;;;14.66;84.16
13068;BME280;6600;51.362;6.686;2023-02-22T12:47:46;100688.94;;;14.69;85.01
13068;BME280;6600;51.362;6.686;2023-02-22T12:50:23;100693.19;;;14.64;85.20
13068;BME280;6600;51.362;6.686;2023-02-22T12:55:41;100682.75;;;14.85;85.17
13068;BME280;6600;51.362;6.686;2023-02-22T13:01:26;100686.16;;;14.97;84.64
13068;BME280;6600;51.362;6.686;2023-02-22T13:03:56;100692.06;;;14.94;84.31
13068;BME280;6600;51.362;6.686;2023-02-22T13:09:54;100681.91;;;15.01;84.25
13068;BME280;6600;51.362;6.686;2023-02-22T13:15:01;100677.66;;;15.05;84.67
13068;BME280;6600;51.362;6.686;2023-02-22T13:17:51;100679.38;;;15.11;84.96
13068;BME280;6600;51.362;6.686;2023-02-22T13:23:02;100675.63;;;15.12;84.02
13068;BME280;6600;51.362;6.686;2023-02-22T13:25:44;100665.88;;;15.11;85.15
13068;BME280;6600;51.362;6.686;2023-02-22T13:30:40;100670.47;;;15.27;84.44
13068;BME280;6600;51.362;6.686;2023-02-22T13:41:18;100665.53;;;15.57;80.24
13068;BME280;6600;51.362;6.686;2023-02-22T13:49:46;100671.72;;;15.75;77.09
13068;BME280;6600;51.362;6.686;2023-02-22T13:52:19;100661.78;;;15.80;78.16
13068;BME280;6600;51.362;6.686;2023-02-22T13:54:50;100666.31;;;15.75;77.16
13068;BME280;6600;51.362;6.686;2023-02-22T13:57:36;100651.47;;;15.77;76.22
13068;BME280;6600;51.362;6.686;2023-02-22T14:08:04;100656.44;;;15.63;79.16
13068;BME280;6600;51.362;6.686;2023-02-22T14:10:56;100658.50;;;15.56;79.66
13068;BME280;6600;51.362;6.686;2023-02-22T14:13:27;100654.66;;;15.52;80.56
13068;BME280;6600;51.362;6.686;2023-02-22T14:18:24;100653.91;;;15.40;81.11
13068;BME280;6600;51.362;6.686;2023-02-22T14:21:09;100659.31;;;15.40;81.64
13068;BME280;6600;51.362;6.686;2023-02-22T14:36:20;100660.78;;;15.31;83.70
13068;BME280;6600;51.362;6.686;2023-02-22T14:38:49;100658.34;;;15.30;83.98
13068;BME280;6600;51.362;6.686;2023-02-22T14:41:21;100667.00;;;15.32;83.53
13068;BME280;6600;51.362;6.686;2023-02-22T14:43:52;100662.44;;;15.32;83.92
13068;BME280;6600;51.362;6.686;2023-02-22T14:46:21;100658.69;;;15.33;83.76
13068;BME280;6600;51.362;6.686;2023-02-22T14:48:49;100656.84;;;15.39;83.47
13068;BME280;6600;51.362;6.686;2023-02-22T14:51:26;100657.84;;;15.49;84.26
13068;BME280;6600;51.362;6.686;2023-02-22T14:54:02;100657.03;;;15.49;84.11
13068;BME280;6600;51.362;6.686;2023-02-22T14:59:18;100657.03;;;15.49;83.85
13068;BME280;6600;51.362;6.686;2023-02-22T15:01:45;100665.88;;;15.44;83.58
13068;BME280;6600;51.362;6.686;2023-02-22T15:04:24;100657.03;;;15.49;83.12
13068;BME280;6600;51.362;6.686;2023-02-22T15:06:51;100660.94;;;15.41;84.01
13068;BME280;6600;51.362;6.686;2023-02-22T15:09:21;100651.38;;;15.50;84.11
13068;BME280;6600;51.362;6.686;2023-02-22T15:14:27;100657.69;;;15.39;84.41
13068;BME280;6600;51.362;6.686;2023-02-22T15:17:02;100659.56;;;15.39;84.80
13068;BME280;6600;51.362;6.686;2023-02-22T15:19:32;100664.22;;;15.43;85.08
13068;BME280;6600;51.362;6.686;2023-02-22T15:22:00;100663.06;;;15.39;85.68
13068;BME280;6600;51.362;6.686;2023-02-22T15:24:31;100666.19;;;15.31;87.25
13068;BME280;6600;51.362;6.686;2023-02-22T15:27:13;100668.19;;;15.19;86.91
13068;BME280;6600;51.362;6.686;2023-02-22T15:29:42;100661.97;;;15.02;86.32
13068;BME280;6600;51.362;6.686;2023-02-22T15:35:16;100676.69;;;14.94;87.10
13068;BME280;6600;51.362;6.686;2023-02-22T15:37:43;100682.75;;;14.85;87.47
13068;BME280;6600;51.362;6.686;2023-02-22T15:40:18;100673.88;;;14.73;88.35
13068;BME280;6600;51.362;6.686;2023-02-22T15:42:52;100673.22;;;14.65;88.62
13068;BME280;6600;51.362;6.686;2023-02-22T15:45:21;100677.47;;;14.61;88.82
13068;BME280;6600;51.362;6.686;2023-02-22T15:47:50;100676.34;;;14.57;89.03
13068;BME280;6600;51.362;6.686;2023-02-22T15:50:30;100669.84;;;14.58;89.24
13068;BME280;6600;51.362;6.686;2023-02-22T15:55:45;100677.44;;;14.45;90.13